»·PEaware :: SWA162 KDEN-KBOI

SWA162 :: KDEN-KBOI

FLIGHT INFORMATION

Flight Status: Arrived
Operator:
Southwest Airlines
More flights by this operator :: More flights under this callsign
Pilot: Andre N. (13929)
Aircraft: BOEING 737-800
(B738)
More flights by this aircraft type
Origin: KDEN Denver Intl
United States
Destination: KBOI Boise Air Terminal/Gowen
United States
More flights between these airports :: More routes between these airports
Route: FOOOT3 RLG MLD REAPS KOURT3
File this flight plan on PilotEdge
Remarks:
Altitude:
(Current/Filed)
38,000ft
Speed:
(Current/Filed)
450kts
Departed: 15-Feb-18 02:48 PM
Arrived: 15-Feb-18 04:29 PM
Distance/Time
Traveled:
563nm/1:41
Distance/Time
To Go:
Arrived

Flight Plot

Page will automatically refresh every two minutes.

Flight plan parsing failed; only flown route is shown


Map Options




Map Legend


Flown Route
Filed Route
Departure Airport
Arrival Airport
Navaid (VOR, NDB)
Fix

Horizontal Profiles

Position Reports

Time Latitude Longitude Heading Altitude Ground
Speed
15-Feb-18 14:21 39.863577 -104.672332 179 5442ft 0kts
15-Feb-18 14:22 39.863577 -104.672332 179 5442ft 0kts
15-Feb-18 14:23 39.863577 -104.672332 179 5442ft 0kts
15-Feb-18 14:24 39.863577 -104.672332 179 5442ft 0kts
15-Feb-18 14:25 39.863577 -104.672332 179 5442ft 0kts
15-Feb-18 14:26 39.863577 -104.672332 179 5442ft 0kts
15-Feb-18 14:27 39.863577 -104.672332 179 5442ft 0kts
15-Feb-18 14:28 39.863577 -104.672332 179 5442ft 0kts
15-Feb-18 14:29 39.863577 -104.672332 179 5442ft 0kts
15-Feb-18 14:30 39.863577 -104.672332 179 5442ft 0kts
15-Feb-18 14:31 39.863577 -104.672332 179 5442ft 0kts
15-Feb-18 14:32 39.863577 -104.672332 179 5442ft 0kts
15-Feb-18 14:33 39.863577 -104.672332 179 5442ft 0kts
15-Feb-18 14:34 39.863577 -104.672332 180 5442ft 0kts
15-Feb-18 14:35 39.863577 -104.672332 180 5442ft 0kts
15-Feb-18 14:36 39.863577 -104.672332 180 5442ft 0kts
15-Feb-18 14:37 39.863577 -104.672332 180 5442ft 0kts
15-Feb-18 14:38 39.863577 -104.672332 180 5442ft 0kts
15-Feb-18 14:39 39.863577 -104.672332 180 5442ft 0kts
15-Feb-18 14:40 39.863577 -104.672332 180 5442ft 0kts
15-Feb-18 14:41 39.863577 -104.672332 179 5442ft 0kts
15-Feb-18 14:42 39.863577 -104.672332 180 5442ft 0kts
15-Feb-18 14:43 39.863662 -104.672336 184 5442ft 2kts
15-Feb-18 14:44 39.864118 -104.671957 264 5442ft 1kts
15-Feb-18 14:45 39.864117 -104.671840 270 5442ft 0kts
15-Feb-18 14:46 39.864124 -104.672509 270 5442ft 14kts
15-Feb-18 14:47 39.864166 -104.678786 268 5442ft 11kts
15-Feb-18 14:48 39.864110 -104.680042 269 5442ft 0kts
15-Feb-18 14:49 39.862750 -104.681803 179 5442ft 17kts
15-Feb-18 14:50 39.860081 -104.683821 179 5442ft 14kts
15-Feb-18 14:51 39.854702 -104.683892 179 5442ft 20kts
15-Feb-18 14:52 39.849102 -104.683952 180 5442ft 20kts
15-Feb-18 14:53 39.843354 -104.684011 179 5442ft 20kts
15-Feb-18 14:54 39.841955 -104.684025 180 5442ft 0kts
15-Feb-18 14:55 39.840699 -104.689407 270 5442ft 87kts
15-Feb-18 14:56 39.842547 -104.748558 290 7255ft 181kts
15-Feb-18 14:57 39.869688 -104.815845 302 8986ft 225kts
15-Feb-18 14:58 39.901658 -104.883853 303 10085ft 228kts
15-Feb-18 14:59 39.934647 -104.959622 297 12340ft 290kts
15-Feb-18 15:00 39.955183 -105.058751 277 16336ft 289kts
15-Feb-18 15:01 39.966357 -105.160478 275 20075ft 288kts
15-Feb-18 15:02 39.978153 -105.262991 274 23454ft 288kts
15-Feb-18 15:03 39.984512 -105.363370 264 25862ft 300kts
15-Feb-18 15:04 39.981084 -105.468214 263 28746ft 298kts
15-Feb-18 15:05 39.977670 -105.580246 262 31217ft 304kts
15-Feb-18 15:06 39.974706 -105.682135 259 34281ft 282kts
15-Feb-18 15:07 39.972776 -105.771211 260 36225ft 280kts
15-Feb-18 15:08 39.971267 -105.871376 264 37974ft 277kts
15-Feb-18 15:09 39.976568 -105.960771 264 38101ft 304kts
15-Feb-18 15:10 39.983023 -106.074651 265 38088ft 325kts
15-Feb-18 15:11 39.989386 -106.190405 265 38090ft 327kts
15-Feb-18 15:12 39.995719 -106.308500 264 38101ft 329kts
15-Feb-18 15:13 40.001904 -106.426116 265 38105ft 329kts
15-Feb-18 15:14 40.039883 -106.542349 281 38110ft 356kts
15-Feb-18 15:15 40.080587 -106.658203 280 38121ft 353kts
15-Feb-18 15:16 40.117893 -106.767535 279 38119ft 352kts
15-Feb-18 15:17 40.156247 -106.879460 280 38127ft 357kts
15-Feb-18 15:18 40.197149 -106.998189 281 38142ft 365kts
15-Feb-18 15:19 40.238882 -107.118857 281 38147ft 368kts
15-Feb-18 15:20 40.281135 -107.240949 282 38148ft 374kts
15-Feb-18 15:21 40.323774 -107.363565 282 38144ft 373kts
15-Feb-18 15:22 40.366702 -107.486845 282 38140ft 373kts
15-Feb-18 15:23 40.409851 -107.610416 282 38139ft 374kts
15-Feb-18 15:24 40.451600 -107.730044 282 38162ft 373kts
15-Feb-18 15:25 40.494776 -107.853202 282 38143ft 373kts
15-Feb-18 15:26 40.538079 -107.976148 282 38126ft 373kts
15-Feb-18 15:27 40.581712 -108.099685 282 38121ft 375kts
15-Feb-18 15:28 40.625570 -108.223456 282 38104ft 375kts
15-Feb-18 15:29 40.669593 -108.347346 282 38099ft 375kts
15-Feb-18 15:30 40.713652 -108.471000 282 38095ft 375kts
15-Feb-18 15:31 40.757612 -108.594009 283 38097ft 375kts
15-Feb-18 15:32 40.800844 -108.714972 282 38129ft 374kts
15-Feb-18 15:33 40.844746 -108.837389 282 38130ft 374kts
15-Feb-18 15:34 40.889128 -108.960559 282 38128ft 375kts
15-Feb-18 15:35 40.934306 -109.085677 284 38130ft 384kts
15-Feb-18 15:36 40.980670 -109.213507 287 38125ft 393kts
15-Feb-18 15:37 41.028079 -109.343743 288 38122ft 398kts
15-Feb-18 15:38 41.076523 -109.476534 290 38116ft 406kts
15-Feb-18 15:39 41.124567 -109.607859 292 38115ft 414kts
15-Feb-18 15:40 41.168407 -109.727409 291 38139ft 413kts
15-Feb-18 15:41 41.212043 -109.846180 291 38183ft 413kts
15-Feb-18 15:42 41.259747 -109.975561 292 38217ft 413kts
15-Feb-18 15:43 41.309865 -110.111024 292 38218ft 413kts
15-Feb-18 15:44 41.360330 -110.247052 292 38215ft 414kts
15-Feb-18 15:45 41.411013 -110.383218 292 38214ft 413kts
15-Feb-18 15:46 41.460265 -110.515130 292 38213ft 413kts
15-Feb-18 15:47 41.510832 -110.650148 292 38212ft 414kts
15-Feb-18 15:48 41.556895 -110.773103 292 38212ft 413kts
15-Feb-18 15:49 41.606870 -110.905828 292 38205ft 413kts
15-Feb-18 15:50 41.658100 -111.041474 294 38203ft 416kts
15-Feb-18 15:51 41.710224 -111.178952 295 38210ft 419kts
15-Feb-18 15:52 41.762307 -111.315944 295 38254ft 419kts
15-Feb-18 15:53 41.814719 -111.453413 295 38277ft 419kts
15-Feb-18 15:54 41.866168 -111.587894 295 38276ft 419kts
15-Feb-18 15:55 41.917728 -111.722448 295 38282ft 419kts
15-Feb-18 15:56 41.970531 -111.859805 295 38288ft 419kts
15-Feb-18 15:57 42.011902 -111.967045 295 38282ft 419kts
15-Feb-18 15:58 42.074116 -112.127757 295 38282ft 419kts
15-Feb-18 15:59 42.118259 -112.241491 295 38281ft 419kts
15-Feb-18 16:00 42.169999 -112.374401 296 38283ft 419kts
15-Feb-18 16:01 42.243111 -112.524959 306 38296ft 422kts
15-Feb-18 16:02 42.304035 -112.628183 305 38297ft 422kts
15-Feb-18 16:03 42.375389 -112.750959 305 38303ft 422kts
15-Feb-18 16:04 42.447720 -112.875321 306 38303ft 421kts
15-Feb-18 16:05 42.520174 -112.999607 308 38305ft 423kts
15-Feb-18 16:06 42.593349 -113.124808 308 38298ft 424kts
15-Feb-18 16:07 42.666461 -113.249751 308 38302ft 424kts
15-Feb-18 16:08 42.740009 -113.375208 309 38297ft 424kts
15-Feb-18 16:09 42.813618 -113.500523 309 37887ft 429kts
15-Feb-18 16:10 42.887050 -113.625306 309 35899ft 422kts
15-Feb-18 16:11 42.958614 -113.746946 310 33761ft 413kts
15-Feb-18 16:12 43.027957 -113.864505 312 31540ft 393kts
15-Feb-18 16:13 43.095653 -113.978839 311 29477ft 393kts
15-Feb-18 16:14 43.159150 -114.087289 305 27768ft 366kts
15-Feb-18 16:15 43.188278 -114.218978 289 26354ft 365kts
15-Feb-18 16:16 43.213656 -114.351763 288 24864ft 358kts
15-Feb-18 16:17 43.238762 -114.482136 288 23297ft 352kts
15-Feb-18 16:18 43.262671 -114.606959 287 21730ft 347kts
15-Feb-18 16:19 43.285998 -114.729725 286 20186ft 341kts
15-Feb-18 16:20 43.309379 -114.853433 285 18616ft 337kts
15-Feb-18 16:21 43.331908 -114.973341 285 17205ft 319kts
15-Feb-18 16:22 43.353788 -115.090550 286 15842ft 316kts
15-Feb-18 16:23 43.375227 -115.206345 286 14547ft 312kts
15-Feb-18 16:24 43.396334 -115.321220 285 13249ft 310kts
15-Feb-18 16:25 43.416935 -115.433366 285 11976ft 296kts
15-Feb-18 16:26 43.436393 -115.539867 285 10776ft 280kts
15-Feb-18 16:27 43.448582 -115.643460 275 9831ft 276kts
15-Feb-18 16:28 43.448077 -115.746366 267 9017ft 272kts
15-Feb-18 16:29 43.444097 -115.847048 268 8362ft 242kts
15-Feb-18 16:30 43.463421 -115.926227 297 7458ft 223kts
15-Feb-18 16:31 43.489263 -116.001110 297 6047ft 211kts
15-Feb-18 16:32 43.512156 -116.067496 297 5032ft 177kts
15-Feb-18 16:33 43.532102 -116.125529 298 4149ft 161kts
15-Feb-18 16:34 43.549725 -116.176896 298 3311ft 140kts
15-Feb-18 16:35 43.563840 -116.217994 295 2879ft 59kts
15-Feb-18 16:36 43.566431 -116.223639 11 2879ft 0kts
15-Feb-18 16:37 43.566339 -116.221067 61 2879ft 11kts
15-Feb-18 16:38 43.567142 -116.220326 22 2879ft 0kts

Navigation Log

Ident Type
Flight plan parsing failed, navigation log unavailable